createdAt,value
2018-02-23T00:01:51.479Z,11.07
2018-02-23T00:04:17.938Z,13.45
2018-02-23T00:06:44.433Z,10.25
2018-02-23T00:09:11.141Z,8.85
2018-02-23T00:11:37.546Z,11.47
2018-02-23T00:14:03.965Z,8.75
2018-02-23T00:16:30.406Z,8.77
2018-02-23T00:18:56.810Z,9.45
2018-02-23T00:21:23.236Z,10.45
2018-02-23T00:23:49.914Z,8.75
2018-02-23T00:26:16.335Z,8.30
2018-02-23T00:28:43.587Z,10.07
2018-02-23T00:31:10.082Z,8.27
2018-02-23T00:33:36.617Z,10.82
2018-02-23T00:36:03.068Z,10.13
2018-02-23T00:38:29.544Z,7.90
2018-02-23T00:40:56.746Z,8.48
2018-02-23T00:43:23.188Z,10.10
2018-02-23T00:45:50.668Z,11.87
2018-02-23T00:48:17.128Z,9.32
2018-02-23T00:50:43.550Z,11.90
2018-02-23T00:53:10.441Z,8.85
2018-02-23T00:55:36.874Z,8.63
2018-02-23T00:58:03.292Z,10.40
2018-02-23T01:00:29.870Z,7.95
2018-02-23T01:02:56.347Z,10.38
2018-02-23T01:05:23.510Z,8.13
2018-02-23T01:07:49.996Z,11.88
2018-02-23T01:10:16.489Z,11.65
2018-02-23T01:12:42.966Z,10.20
2018-02-23T01:15:09.463Z,14.57
2018-02-23T01:17:35.913Z,12.57
2018-02-23T01:20:02.352Z,12.05
2018-02-23T01:22:28.803Z,11.75
2018-02-23T01:24:55.237Z,13.88
2018-02-23T01:27:21.623Z,7.87
2018-02-23T01:29:48.405Z,8.02
2018-02-23T01:32:14.883Z,8.27
2018-02-23T01:34:41.341Z,9.57
2018-02-23T01:37:08.205Z,12.13
2018-02-23T01:39:34.617Z,11.12
2018-02-23T01:42:01.011Z,8.60
2018-02-23T01:44:28.236Z,9.80
2018-02-23T01:46:55.431Z,10.95
2018-02-23T01:49:22.591Z,9.35
2018-02-23T01:51:49.069Z,8.50
2018-02-23T01:54:16.252Z,10.90
2018-02-23T01:56:42.685Z,10.63
2018-02-23T01:59:09.130Z,11.90
2018-02-23T02:01:36.308Z,14.70
2018-02-23T02:04:02.930Z,13.62
2018-02-23T02:06:29.445Z,8.93
2018-02-23T02:08:56.657Z,11.30
2018-02-23T02:11:23.088Z,12.25
2018-02-23T02:13:49.796Z,10.90
2018-02-23T02:16:16.258Z,14.10
2018-02-23T02:18:42.687Z,14.52
2018-02-23T02:21:09.158Z,12.25
2018-02-23T02:23:35.735Z,11.15
2018-02-23T02:26:02.962Z,14.18
2018-02-23T02:28:30.567Z,15.05
2018-02-23T02:30:57.017Z,10.65
2018-02-23T02:33:23.544Z,13.80
2018-02-23T02:35:50.031Z,11.98
2018-02-23T02:38:16.471Z,18.67
2018-02-23T02:40:43.652Z,14.20
2018-02-23T02:43:10.150Z,14.85
2018-02-23T02:45:37.573Z,13.25
2018-02-23T02:48:04.053Z,11.38
2018-02-23T02:50:30.523Z,15.32
2018-02-23T02:52:59.469Z,11.15
2018-02-23T02:55:25.876Z,14.20
2018-02-23T02:57:53.820Z,15.53
2018-02-23T03:00:20.278Z,17.48
2018-02-23T03:02:48.688Z,12.73
2018-02-23T03:05:15.928Z,11.63
2018-02-23T03:07:42.370Z,10.98
2018-02-23T03:10:09.601Z,14.32
2018-02-23T03:12:36.125Z,13.75
2018-02-23T03:15:02.622Z,11.07
2018-02-23T03:17:29.101Z,17.62
2018-02-23T03:19:55.558Z,12.37
2018-02-23T03:22:22.052Z,15.85
2018-02-23T03:24:48.564Z,11.40
2018-02-23T03:27:14.950Z,15.05
2018-02-23T03:29:41.365Z,10.85
2018-02-23T03:32:07.817Z,13.15
2018-02-23T03:34:34.247Z,12.60
2018-02-23T03:37:01.415Z,13.55
2018-02-23T03:39:28.725Z,11.57
2018-02-23T03:41:55.176Z,14.77
2018-02-23T03:44:21.632Z,9.45
2018-02-23T03:46:48.941Z,12.18
2018-02-23T03:49:15.386Z,11.55
2018-02-23T03:51:41.825Z,10.35
2018-02-23T03:54:08.317Z,15.25
2018-02-23T03:56:34.763Z,21.92
2018-02-23T03:59:01.191Z,18.95
2018-02-23T04:01:27.609Z,16.77
2018-02-23T04:03:54.500Z,18.48
2018-02-23T04:06:20.941Z,15.70
2018-02-23T04:08:47.459Z,17.02
2018-02-23T04:11:13.921Z,15.38
2018-02-23T04:13:41.065Z,20.62
2018-02-23T04:16:07.550Z,21.45
2018-02-23T04:18:34.058Z,21.90
2018-02-23T04:21:01.302Z,28.58
2018-02-23T04:23:28.569Z,20.00
2018-02-23T04:25:55.439Z,27.75
2018-02-23T04:28:22.633Z,24.10
2018-02-23T04:30:49.134Z,25.00
2018-02-23T04:33:15.885Z,23.62
2018-02-23T04:35:42.300Z,24.95
2018-02-23T04:38:08.752Z,20.70
2018-02-23T04:40:35.321Z,26.73
2018-02-23T04:43:01.726Z,23.40
2018-02-23T04:45:28.275Z,20.52
2018-02-23T04:47:54.829Z,24.87
2018-02-23T04:50:21.318Z,22.13
2018-02-23T04:52:47.746Z,16.98
2018-02-23T04:55:14.968Z,16.70
2018-02-23T04:57:41.405Z,14.82
2018-02-23T05:00:08.685Z,20.50
2018-02-23T05:02:35.460Z,19.95
2018-02-23T05:05:01.861Z,21.77
2018-02-23T05:07:28.245Z,24.02
2018-02-23T05:09:54.697Z,19.02
2018-02-23T05:12:21.106Z,19.25
2018-02-23T05:14:47.543Z,16.73
2018-02-23T05:17:14.327Z,18.33
2018-02-23T05:19:40.791Z,17.00
2018-02-23T05:22:07.266Z,14.13
2018-02-23T05:24:33.794Z,19.35
2018-02-23T05:27:00.207Z,15.82
2018-02-23T05:29:26.724Z,17.85
2018-02-23T05:31:53.281Z,14.25
2018-02-23T05:34:19.776Z,11.93
2018-02-23T05:36:46.300Z,14.93
2018-02-23T05:39:13.513Z,17.73
2018-02-23T05:41:39.977Z,15.68
2018-02-23T05:44:06.373Z,12.48
2018-02-23T05:46:33.115Z,14.43
2018-02-23T05:48:59.549Z,14.43
2018-02-23T05:51:25.989Z,17.77
2018-02-23T05:53:52.804Z,13.27
2018-02-23T05:56:19.228Z,11.12
2018-02-23T05:58:46.420Z,16.05
2018-02-23T06:01:13.090Z,12.57
2018-02-23T06:03:39.629Z,14.27
2018-02-23T06:06:06.805Z,15.73
2018-02-23T06:08:33.294Z,14.77
2018-02-23T06:10:59.796Z,14.07
2018-02-23T06:13:26.208Z,16.37
2018-02-23T06:15:58.691Z,13.13
2018-02-23T06:18:31.349Z,15.88
2018-02-23T06:20:57.765Z,13.93
2018-02-23T06:23:24.209Z,12.65
2018-02-23T06:25:51.476Z,12.70
2018-02-23T06:28:18.048Z,14.43
2018-02-23T06:30:44.561Z,14.25
2018-02-23T06:33:10.990Z,14.73
2018-02-23T06:35:37.392Z,13.05
2018-02-23T06:38:04.392Z,16.25
2018-02-23T06:40:30.827Z,14.27
2018-02-23T06:42:57.335Z,11.57
2018-02-23T06:45:23.952Z,13.43
2018-02-23T06:47:51.225Z,14.93
2018-02-23T06:50:17.743Z,11.82
2018-02-23T06:52:44.293Z,12.10
2018-02-23T06:55:10.740Z,14.95
2018-02-23T06:57:37.168Z,11.23
2018-02-23T07:00:03.905Z,16.25
2018-02-23T07:02:30.785Z,13.07
2018-02-23T07:04:57.240Z,12.90
2018-02-23T07:07:23.845Z,11.15
2018-02-23T07:09:50.284Z,10.75
2018-02-23T07:12:16.790Z,14.30
2018-02-23T07:14:43.555Z,12.73
2018-02-23T07:17:09.965Z,15.30
2018-02-23T07:19:36.423Z,16.05
2018-02-23T07:22:03.035Z,13.25
2018-02-23T07:24:29.565Z,13.77
2018-02-23T07:26:56.978Z,14.70
2018-02-23T07:29:24.091Z,10.45
2018-02-23T07:31:51.460Z,15.48
2018-02-23T07:34:17.859Z,13.30
2018-02-23T07:36:44.495Z,14.90
2018-02-23T07:39:11.143Z,15.75
2018-02-23T07:41:37.681Z,18.90
2018-02-23T07:44:04.371Z,16.10
2018-02-23T07:46:30.790Z,11.18
2018-02-23T07:48:57.213Z,13.27
2018-02-23T07:51:24.070Z,16.20
2018-02-23T07:53:50.505Z,10.68
2018-02-23T07:56:17.080Z,14.87
2018-02-23T07:58:44.303Z,14.07
2018-02-23T08:01:11.585Z,15.15
2018-02-23T08:03:38.086Z,15.98
2018-02-23T08:06:04.883Z,13.10
2018-02-23T08:08:31.339Z,14.53
2018-02-23T08:10:57.894Z,13.50
2018-02-23T08:13:24.822Z,10.43
2018-02-23T08:15:51.414Z,14.20
2018-02-23T08:18:17.817Z,10.75
2018-02-23T08:20:44.385Z,9.95
2018-02-23T08:23:10.799Z,10.73
2018-02-23T08:25:37.223Z,15.27
2018-02-23T08:28:04.069Z,10.15
2018-02-23T08:30:31.386Z,11.43
2018-02-23T08:32:57.983Z,15.05
2018-02-23T08:35:25.198Z,13.00
2018-02-23T08:37:51.636Z,12.27
2018-02-23T08:40:18.213Z,10.05
2018-02-23T08:42:44.756Z,8.95
2018-02-23T08:45:12.000Z,11.65
2018-02-23T08:47:38.513Z,13.13
2018-02-23T08:50:05.040Z,11.18
2018-02-23T08:52:31.489Z,12.57
2018-02-23T08:54:57.939Z,12.05
2018-02-23T08:57:24.497Z,10.10
2018-02-23T08:59:51.106Z,11.45
2018-02-23T09:02:17.552Z,9.35
2018-02-23T09:04:44.795Z,10.77
2018-02-23T09:07:11.183Z,11.30
2018-02-23T09:09:37.724Z,8.70
2018-02-23T09:12:04.294Z,9.40
2018-02-23T09:14:31.457Z,9.88
2018-02-23T09:16:58.667Z,7.45
2018-02-23T09:19:25.428Z,6.90
2018-02-23T09:21:51.939Z,9.13
2018-02-23T09:24:18.462Z,9.15
2018-02-23T09:26:45.337Z,6.73
2018-02-23T09:29:11.752Z,8.13
2018-02-23T09:31:38.210Z,11.15
2018-02-23T09:34:16.769Z,8.27
2018-02-23T09:36:43.239Z,7.20
2018-02-23T09:39:09.764Z,5.60
2018-02-23T09:41:36.638Z,8.43
2018-02-23T09:44:03.843Z,6.70
2018-02-23T09:46:30.312Z,10.80
2018-02-23T09:48:57.167Z,5.78
2018-02-23T09:51:23.717Z,8.05
2018-02-23T09:53:50.264Z,5.75
2018-02-23T09:56:17.791Z,6.32
2018-02-23T09:58:44.229Z,6.72
2018-02-23T10:01:12.278Z,6.25
2018-02-23T10:03:39.046Z,6.30
2018-02-23T10:06:05.514Z,6.43
2018-02-23T10:08:33.772Z,8.60
2018-02-23T10:11:00.551Z,11.10
2018-02-23T10:13:26.949Z,6.75
2018-02-23T10:15:53.410Z,6.07
2018-02-23T10:18:20.261Z,4.75
2018-02-23T10:20:46.627Z,5.32
2018-02-23T10:23:13.873Z,5.32
2018-02-23T10:25:40.445Z,6.05
2018-02-23T10:28:06.971Z,5.22
2018-02-23T10:30:34.169Z,8.23
2018-02-23T10:33:01.264Z,6.43
2018-02-23T10:35:27.914Z,25.35
2018-02-23T10:37:54.445Z,6.20
2018-02-23T10:40:21.039Z,7.87
2018-02-23T10:42:47.679Z,4.75
2018-02-23T10:45:14.214Z,4.82
2018-02-23T10:47:41.185Z,10.68
2018-02-23T10:50:07.661Z,8.05
2018-02-23T10:52:34.190Z,5.05
2018-02-23T10:55:00.741Z,3.80
2018-02-23T10:57:28.095Z,5.45
2018-02-23T10:59:55.249Z,8.50
2018-02-23T11:02:21.835Z,6.22
2018-02-23T11:04:48.298Z,6.35
2018-02-23T11:07:15.688Z,3.92
2018-02-23T11:09:42.278Z,5.93
2018-02-23T11:12:09.494Z,3.15
2018-02-23T11:14:36.069Z,6.85
2018-02-23T11:17:03.353Z,3.65
2018-02-23T11:19:30.566Z,7.05
2018-02-23T11:21:57.741Z,4.90
2018-02-23T11:24:25.270Z,5.62
2018-02-23T11:26:51.802Z,3.22
2018-02-23T11:29:18.967Z,6.95
2018-02-23T11:31:46.724Z,5.32
2018-02-23T11:34:13.192Z,2.60
2018-02-23T11:36:39.646Z,7.03
2018-02-23T11:39:06.103Z,4.32
2018-02-23T11:41:32.638Z,2.40
2018-02-23T11:43:59.400Z,1.75
2018-02-23T11:46:26.113Z,4.22
2018-02-23T11:48:52.661Z,3.28
2018-02-23T11:51:19.219Z,2.58
2018-02-23T11:53:46.489Z,2.83
2018-02-23T11:56:12.981Z,4.87
2018-02-23T11:58:39.584Z,3.45
2018-02-23T12:01:06.046Z,3.40
2018-02-23T12:03:32.480Z,4.85
2018-02-23T12:05:58.916Z,51.10
2018-02-23T12:08:25.376Z,3.12
2018-02-23T12:10:51.841Z,5.60
2018-02-23T12:13:18.251Z,2.58
2018-02-23T12:15:46.031Z,2.62
2018-02-23T12:18:12.524Z,2.45
2018-02-23T12:20:38.976Z,1.95
2018-02-23T12:23:05.508Z,2.13
2018-02-23T12:25:32.083Z,3.33
2018-02-23T12:27:58.665Z,2.33
2018-02-23T12:30:25.403Z,4.82
2018-02-23T12:32:51.909Z,3.85
2018-02-23T12:35:19.075Z,22.00
2018-02-23T12:37:45.558Z,11.52
2018-02-23T12:40:12.764Z,3.97
2018-02-23T12:42:39.248Z,3.30
2018-02-23T12:45:05.711Z,4.28
2018-02-23T12:47:32.151Z,4.50
2018-02-23T12:49:59.359Z,2.72
2018-02-23T12:52:27.140Z,3.17
2018-02-23T12:54:53.608Z,2.58
2018-02-23T12:57:20.968Z,2.03
2018-02-23T12:59:47.882Z,6.45
2018-02-23T13:02:14.228Z,9.57
2018-02-23T13:04:41.478Z,5.12
2018-02-23T13:07:08.433Z,2.55
2018-02-23T13:09:35.662Z,3.28
2018-02-23T13:12:02.188Z,3.90
2018-02-23T13:14:34.593Z,7.10
2018-02-23T13:17:01.814Z,4.82
2018-02-23T13:19:29.013Z,3.65
2018-02-23T13:21:55.531Z,5.40
2018-02-23T13:24:22.096Z,2.37
2018-02-23T13:26:48.548Z,3.20
2018-02-23T13:29:15.323Z,2.83
2018-02-23T13:31:42.510Z,2.65
2018-02-23T13:34:08.934Z,5.87
2018-02-23T13:36:35.464Z,4.95
2018-02-23T13:39:01.963Z,3.55
2018-02-23T13:41:34.442Z,3.78
2018-02-23T13:44:01.014Z,7.07
2018-02-23T13:46:27.633Z,8.45
2018-02-23T13:48:54.193Z,17.00
2018-02-23T13:51:20.813Z,8.18
2018-02-23T13:53:48.032Z,3.65
2018-02-23T13:56:14.780Z,3.17
2018-02-23T13:58:41.391Z,2.70
2018-02-23T14:01:07.889Z,3.30
2018-02-23T14:03:34.443Z,3.72
2018-02-23T14:06:03.000Z,3.17
2018-02-23T14:08:30.292Z,3.85
2018-02-23T14:10:56.787Z,4.85
2018-02-23T14:13:23.386Z,2.87
2018-02-23T14:15:49.858Z,4.20
2018-02-23T14:18:17.172Z,3.00
2018-02-23T14:20:43.763Z,5.45
2018-02-23T14:23:10.991Z,2.60
2018-02-23T14:25:45.253Z,3.30
2018-02-23T14:28:11.728Z,2.97
2018-02-23T14:30:38.228Z,3.25
2018-02-23T14:33:04.752Z,2.90
2018-02-23T14:35:31.174Z,5.47
2018-02-23T14:37:58.325Z,3.20
2018-02-23T14:40:25.065Z,3.00
2018-02-23T14:45:26.158Z,2.97
2018-02-23T14:47:52.548Z,2.10
2018-02-23T14:50:31.828Z,3.33
2018-02-23T14:52:59.095Z,3.47
2018-02-23T14:55:25.625Z,2.07
2018-02-23T14:57:52.459Z,3.85
2018-02-23T15:00:19.001Z,3.87
2018-02-23T15:02:45.525Z,2.90
2018-02-23T15:05:12.230Z,3.30
2018-02-23T15:07:39.401Z,4.53
2018-02-23T15:10:05.906Z,7.45
2018-02-23T15:12:32.470Z,5.12
2018-02-23T15:14:59.053Z,2.87
2018-02-23T15:17:25.507Z,3.37
2018-02-23T15:19:52.273Z,5.28
2018-02-23T15:22:18.654Z,1.87
2018-02-23T15:24:45.227Z,1.70
2018-02-23T15:27:11.823Z,2.40
2018-02-23T15:29:38.352Z,12.68
2018-02-23T15:32:17.218Z,2.40
2018-02-23T15:34:43.636Z,1.95
2018-02-23T15:37:10.134Z,3.42
2018-02-23T15:39:36.684Z,3.53
2018-02-23T15:42:03.185Z,2.30
2018-02-23T15:44:29.628Z,4.72
2018-02-23T15:46:56.245Z,4.90
2018-02-23T15:49:29.518Z,2.28
2018-02-23T15:51:56.014Z,2.20
2018-02-23T15:54:22.597Z,3.62
2018-02-23T15:56:49.153Z,3.50
2018-02-23T15:59:16.375Z,2.75
2018-02-23T16:01:42.916Z,2.67
2018-02-23T16:04:09.420Z,2.42
2018-02-23T16:06:36.011Z,3.00
2018-02-23T16:09:03.334Z,2.85
2018-02-23T16:11:29.870Z,3.42
2018-02-23T16:13:56.378Z,2.15
2018-02-23T16:16:23.236Z,2.90
2018-02-23T16:18:49.748Z,2.83
2018-02-23T16:21:16.144Z,2.58
2018-02-23T16:23:43.432Z,5.17
2018-02-23T16:26:09.886Z,2.15
2018-02-23T16:28:36.313Z,2.80
2018-02-23T16:31:03.090Z,5.00
2018-02-23T16:33:29.508Z,3.90
2018-02-23T16:35:56.099Z,7.00
2018-02-23T16:38:22.896Z,3.30
2018-02-23T16:40:49.385Z,2.80
2018-02-23T16:43:15.973Z,2.97
2018-02-23T16:45:42.554Z,3.08
2018-02-23T16:48:09.180Z,3.35
2018-02-23T16:50:35.611Z,2.85
2018-02-23T16:53:02.422Z,4.78
2018-02-23T16:55:29.020Z,6.25
2018-02-23T16:57:55.588Z,4.53
2018-02-23T17:00:22.191Z,3.70
2018-02-23T17:02:49.394Z,4.37
2018-02-23T17:05:16.722Z,5.20
2018-02-23T17:07:43.501Z,3.28
2018-02-23T17:10:09.984Z,4.62
2018-02-23T17:12:36.388Z,2.62
2018-02-23T17:15:03.657Z,4.78
2018-02-23T17:17:31.436Z,2.90
2018-02-23T17:19:57.830Z,6.75
2018-02-23T17:22:24.321Z,2.80
2018-02-23T17:24:50.809Z,4.43
2018-02-23T17:27:17.299Z,3.55
2018-02-23T17:29:43.800Z,4.15
2018-02-23T17:32:10.299Z,3.35
2018-02-23T17:34:37.576Z,3.95
2018-02-23T17:37:03.996Z,4.25
2018-02-23T17:39:31.226Z,3.83
2018-02-23T17:41:57.650Z,4.07
2018-02-23T17:44:24.125Z,3.37
2018-02-23T17:46:50.664Z,14.43
2018-02-23T17:49:17.620Z,2.97
2018-02-23T17:51:44.072Z,5.28
2018-02-23T17:54:10.685Z,4.40
2018-02-23T17:56:37.132Z,3.70
2018-02-23T17:59:03.650Z,2.33
2018-02-23T18:01:30.842Z,4.60
2018-02-23T18:03:57.300Z,3.58
2018-02-23T18:06:23.898Z,9.77
2018-02-23T18:08:51.137Z,2.95
2018-02-23T18:11:18.040Z,5.18
2018-02-23T18:13:45.421Z,3.40
2018-02-23T18:16:11.885Z,3.65
2018-02-23T18:18:38.532Z,5.10
2018-02-23T18:21:05.101Z,4.65
2018-02-23T18:23:31.550Z,6.68
2018-02-23T18:25:58.127Z,2.80
2018-02-23T18:28:24.568Z,5.60
2018-02-23T18:30:51.017Z,4.40
2018-02-23T18:33:17.477Z,3.35
2018-02-23T18:35:43.999Z,6.12
2018-02-23T18:38:10.555Z,5.18
2018-02-23T18:40:37.021Z,5.78
2018-02-23T18:43:03.507Z,4.15
2018-02-23T18:45:30.677Z,4.05
2018-02-23T18:47:57.147Z,3.50
2018-02-23T18:50:23.562Z,3.22
2018-02-23T18:52:50.861Z,4.12
2018-02-23T18:55:17.592Z,3.85
2018-02-23T18:57:44.886Z,3.97
2018-02-23T19:00:12.126Z,4.82
2018-02-23T19:02:39.661Z,2.75
2018-02-23T19:05:06.136Z,5.93
2018-02-23T19:07:33.317Z,4.53
2018-02-23T19:09:59.906Z,3.65
2018-02-23T19:12:26.380Z,6.12
2018-02-23T19:14:52.866Z,3.35
2018-02-23T19:17:19.916Z,2.62
2018-02-23T19:19:46.473Z,3.58
2018-02-23T19:22:13.634Z,4.70
2018-02-23T19:24:41.123Z,5.55
2018-02-23T19:27:07.509Z,6.37
2018-02-23T19:29:35.034Z,6.32
2018-02-23T19:32:01.563Z,4.10
2018-02-23T19:34:28.734Z,3.95
2018-02-23T19:36:55.098Z,4.55
2018-02-23T19:39:22.045Z,5.30
2018-02-23T19:41:49.165Z,6.25
2018-02-23T19:44:15.534Z,4.18
2018-02-23T19:46:42.320Z,4.32
2018-02-23T19:49:08.732Z,7.25
2018-02-23T19:51:35.183Z,5.60
2018-02-23T19:54:01.652Z,5.72
2018-02-23T19:56:28.087Z,4.47
2018-02-23T19:58:54.471Z,6.70
2018-02-23T20:01:20.905Z,3.08
2018-02-23T20:03:47.385Z,13.52
2018-02-23T20:06:13.794Z,6.40
2018-02-23T20:08:40.722Z,8.68
2018-02-23T20:11:07.160Z,6.32
2018-02-23T20:13:33.562Z,9.05
2018-02-23T20:16:00.929Z,8.77
2018-02-23T20:18:27.327Z,6.72
2018-02-23T20:20:53.914Z,4.93
2018-02-23T20:23:20.484Z,4.87
2018-02-23T20:25:47.765Z,8.52
2018-02-23T20:28:14.180Z,6.65
2018-02-23T20:30:40.910Z,5.62
2018-02-23T20:33:07.320Z,10.50
2018-02-23T20:35:33.810Z,5.97
2018-02-23T20:38:01.434Z,6.47
2018-02-23T20:40:27.831Z,7.20
2018-02-23T20:42:54.249Z,7.40
2018-02-23T20:45:20.705Z,5.75
2018-02-23T20:47:47.258Z,5.53
2018-02-23T20:50:13.661Z,5.03
2018-02-23T20:52:40.944Z,6.95
2018-02-23T20:55:07.344Z,6.60
2018-02-23T20:57:34.720Z,6.05
2018-02-23T21:00:01.290Z,7.75
2018-02-23T21:02:27.699Z,7.43
2018-02-23T21:04:54.102Z,8.52
2018-02-23T21:07:20.566Z,9.65
2018-02-23T21:09:47.845Z,7.30
2018-02-23T21:12:14.262Z,5.93
2018-02-23T21:14:40.768Z,5.45
2018-02-23T21:17:07.193Z,7.87
2018-02-23T21:19:34.475Z,5.18
2018-02-23T21:22:01.209Z,7.78
2018-02-23T21:24:27.696Z,8.02
2018-02-23T21:26:54.076Z,7.97
2018-02-23T21:29:20.585Z,5.05
2018-02-23T21:31:46.994Z,9.38
2018-02-23T21:34:13.451Z,6.22
2018-02-23T21:36:41.139Z,4.90
2018-02-23T21:39:07.634Z,12.73
2018-02-23T21:41:47.277Z,10.82
2018-02-23T21:44:14.743Z,6.97
2018-02-23T21:46:41.889Z,8.13
2018-02-23T21:49:09.397Z,7.78
2018-02-23T21:51:35.787Z,7.72
2018-02-23T21:54:02.240Z,5.72
2018-02-23T21:56:29.047Z,7.97
2018-02-23T21:58:56.233Z,5.75
2018-02-23T22:01:22.648Z,4.43
2018-02-23T22:03:50.146Z,4.93
2018-02-23T22:06:17.368Z,6.53
2018-02-23T22:08:44.658Z,5.78
2018-02-23T22:11:12.190Z,8.65
2018-02-23T22:13:38.599Z,6.28
2018-02-23T22:16:05.005Z,3.78
2018-02-23T22:18:31.496Z,4.80
2018-02-23T22:20:57.909Z,5.30
2018-02-23T22:23:25.167Z,3.83
2018-02-23T22:25:51.659Z,4.43
2018-02-23T22:28:18.157Z,7.37
2018-02-23T22:30:44.858Z,5.65
2018-02-23T22:33:11.598Z,6.70
2018-02-23T22:35:38.072Z,6.30
2018-02-23T22:38:04.573Z,6.32
2018-02-23T22:40:30.972Z,4.28
2018-02-23T22:42:57.475Z,7.90
2018-02-23T22:45:23.917Z,9.52
2018-02-23T22:47:50.431Z,4.90
2018-02-23T22:50:17.618Z,3.72
2018-02-23T22:52:44.932Z,5.12
2018-02-23T22:55:12.415Z,8.93
2018-02-23T22:57:39.579Z,7.05
2018-02-23T23:00:06.037Z,6.43
2018-02-23T23:02:33.252Z,4.12
2018-02-23T23:04:59.624Z,4.40
2018-02-23T23:07:26.032Z,2.95
2018-02-23T23:09:52.625Z,4.07
2018-02-23T23:12:19.099Z,4.00
2018-02-23T23:14:46.244Z,3.58
2018-02-23T23:17:12.936Z,5.72
2018-02-23T23:19:40.111Z,4.62
2018-02-23T23:22:06.566Z,4.87
2018-02-23T23:24:33.006Z,5.68
2018-02-23T23:26:59.424Z,3.62
2018-02-23T23:29:25.817Z,5.28
2018-02-23T23:31:52.803Z,3.72
2018-02-23T23:34:19.209Z,4.78
2018-02-23T23:36:45.635Z,4.70
2018-02-23T23:39:12.129Z,5.82
2018-02-23T23:41:38.605Z,5.37
2018-02-23T23:44:05.078Z,4.57
2018-02-23T23:46:31.474Z,4.37
2018-02-23T23:48:57.860Z,3.35
2018-02-23T23:51:24.237Z,7.37
2018-02-23T23:53:51.440Z,2.95
2018-02-23T23:56:17.873Z,5.78
2018-02-23T23:58:44.253Z,4.00
